Seajoy — 9HGN7 — position and weather

sailwx.info

Track history (hours):
 
Tides and Currents Weather Stations Pressure Air Temp Water Temp Dewpoint Dewpoint Depression Visibility Wind Speed Wind Dir Waves Ship Positions

Seajoy

Last reported at 2018-Jul-16 03:33 UTC. Time now 2018-Jul-19 11:45 UTC.
Position S 33°55' E 017°11'.

Length 225 m; draft 6.5 m.

Type: Ship. MMSI: 215208000.

Date/timePositionNaut miles runAvg speedWind from/ knotsBaromVisibWave heightAir tempDewpointWater temp
2018-Jul-16 03:33S 33°55' E 017°11'1712.1
2018-Jul-16 02:10S 34°03' E 017°28'212.1
2018-Jul-16 02:00S 34°04' E 017°30'612.0
2018-Jul-16 01:30S 34°07' E 017°36'612.1
2018-Jul-16 01:00S 34°10' E 017°43'612.3
2018-Jul-16 00:29S 34°14' E 017°49'612.3
2018-Jul-16 00:00S 34°17' E 017°55'612.5
2018-Jul-15 23:31S 34°20' E 018°01'612.7
2018-Jul-15 23:01S 34°24' E 018°08'712.7
2018-Jul-15 22:28S 34°27' E 018°15'612.5
2018-Jul-15 22:00S 34°30' E 018°21'612.8
2018-Jul-15 21:30S 34°33' E 018°28'612.9
2018-Jul-15 21:00S 34°36' E 018°35'613.0
2018-Jul-15 20:30S 34°39' E 018°42'712.8
2018-Jul-15 19:56S 34°42' E 018°50'512.6
2018-Jul-15 19:30S 34°45' E 018°56'  
Track history (hours):
 
Tides and Currents Weather Stations Pressure Air Temp Water Temp Dewpoint Dewpoint Depression Visibility Wind Speed Wind Dir Waves Ship Positions

Seajoy

Last reported at 2018-Jul-16 03:33 UTC. Time now 2018-Jul-19 11:45 UTC.
Position S 33°55' E 017°11'.

Length 225 m; draft 6.5 m.

Type: Ship. MMSI: 215208000.

Date/timePositionNaut miles runAvg speedWind from/ knotsBaromVisibWave heightAir tempDewpointWater temp
2018-Jul-16 03:33S 33°55' E 017°11'1712.1
2018-Jul-16 02:10S 34°03' E 017°28'212.1
2018-Jul-16 02:00S 34°04' E 017°30'612.0
2018-Jul-16 01:30S 34°07' E 017°36'612.1
2018-Jul-16 01:00S 34°10' E 017°43'612.3
2018-Jul-16 00:29S 34°14' E 017°49'612.3
2018-Jul-16 00:00S 34°17' E 017°55'612.5
2018-Jul-15 23:31S 34°20' E 018°01'612.7
2018-Jul-15 23:01S 34°24' E 018°08'712.7
2018-Jul-15 22:28S 34°27' E 018°15'612.5
2018-Jul-15 22:00S 34°30' E 018°21'612.8
2018-Jul-15 21:30S 34°33' E 018°28'612.9
2018-Jul-15 21:00S 34°36' E 018°35'613.0
2018-Jul-15 20:30S 34°39' E 018°42'712.8
2018-Jul-15 19:56S 34°42' E 018°50'512.6
2018-Jul-15 19:30S 34°45' E 018°56'  

Dump ship's entire track history